Accueil
METAR-TAF:

METAR-TAF

Aéroports :

Locarno, Suisse

latitude: 46-09-55N, longitude: 8-52-40E, altitude: 198 m

Observation

Le bulletin a été fait il y a 40 minutes, à 02:50 UTC
Vent calme
Température 6°C
Humidité 100%
Pression 1019 hPa
Visibilité: 3700 m
Quelques nuages à une hauteur de 4400 ft
brume

METAR: LSZL 190250Z AUTO 00000KT 3700NDV BR FEW044 06/06 Q1019 RMK

Heure: 05:30 (03:30 UTC)

Prévision

Le bulletin a été fait il y a 1 heure et 5 minutes, à 02:25 UTC
Prévision valable du 19 à 03 UTC au 19 à 12 UTC
Vent 1 kt de direction variable
Visibilité: 4000 m
Nuages épars à une hauteur de 4000 ft
brume
Probabilité 30% :
Temporairement
du 19 à 03 UTC au 19 à 07 UTC
Visibilité: 0300 m
à une hauteur de 200 ft
brouillard
Evoluant progressivement
du 19 à 07 UTC au 19 à 10 UTC
Visibilité: 8000 m

TAF: LSZL 190225Z 1903/1912 VRB01KT 4000 BR SCT040 PROB30 TEMPO 1903/1907 0300 FG VV002 BECMG 1907/1910 8000

Observations et prévisions météorologiques de plus de 4000 aéroports (messages METAR et TAF).

Les stations disponibles sont représentées par des disques jaunes et rouges sur la carte.

Passer la souris dessus pour voir le nom de la station.

Cliquer dessus pour voir les observations et prévisions météorologiques.

Pour changer de carte: cliquez sur les boutons verts avec une croix noire pour zoomer, sur le bouton vert avec un tiret pour effectuer un zoom arrière, ou sur les flèches vertes pour les cartes adjacentes.


METAR-TAF: